ポンタ・デルガダ の空港の天気 - METARとTAF

ポンタ・デルガダ空港 ( LPPD / PDL ) - ポルトガル ポンタ・デルガダ (サンミゲル島)
飛行場実況気象(Metar)
観測時間08/13 21:00 AZOST (08/13 21:00 UTC)
風向・風速西 4m/s
視程10km以上
天気現象
少しの雲 雲底高度 550m
気温23℃
湿度94%
気圧1020hPa
METARLPPD 132100Z 28008KT 9999 FEW018TCU 23/22 Q1020
過去の天気等 Google飛行場航空写真 Wunderground天気予報

過去48時間のMETAR

飛行場予報(TAF)
発表時間: 8/13 17:00 AZOST (8/13 17:00 UTC)
予報対象時間: 13日18時 AZOST ~ 14日18時 AZOST
風向・風速西北西 8m/s
視程10km以上
全天の4割程度の雲 雲底高度 610m
13日18時 AZOST ~ 14日18時 AZOST に一時的に
少しの雲 雲底高度 550m
全天の8割程度の雲 雲底高度 1070m
13日18時 AZOST ~ 13日21時 AZOST に徐々に
風向・風速西北西 4m/s
14日0時 AZOST ~ 14日18時 AZOST に 確率 40% で一時的に
視程3000m
天気現象弱い雨霧雨 もや
全天の4割程度の雲 雲底高度 120m
全天の8割程度の雲 雲底高度 240m
14日9時 AZOST ~ 14日11時 AZOST に徐々に
風向・風速西北西 7m/s
TAF LPPD 131700Z 1318/1418 29015KT 9999 SCT020
TEMPO 1318/1418 FEW018 BKN035
BECMG 1318/1321 30008KT
PROB40 TEMPO 1400/1418 3000 -RADZ BR SCT004 BKN008
BECMG 1409/1411 29013KT